createdAt,value
2022-12-01T00:02:10.799Z,99714.59
2022-12-01T00:07:14.327Z,99710.88
2022-12-01T00:12:17.695Z,99706.52
2022-12-01T00:17:21.083Z,99709.51
2022-12-01T00:22:24.473Z,99706.86
2022-12-01T00:27:27.832Z,99705.87
2022-12-01T00:32:31.279Z,99706.21
2022-12-01T00:37:34.771Z,99704.98
2022-12-01T00:42:38.148Z,99708.84
2022-12-01T00:47:41.515Z,99710.44
2022-12-01T00:52:44.936Z,99706.55
2022-12-01T00:57:48.299Z,99701.27
2022-12-01T01:02:51.720Z,99699.48
2022-12-01T01:07:55.170Z,99702.65
2022-12-01T01:12:58.679Z,99698.45
2022-12-01T01:18:02.094Z,99696.72
2022-12-01T01:23:05.580Z,99696.14
2022-12-01T01:28:08.969Z,99693.95
2022-12-01T01:33:12.368Z,99695.60
2022-12-01T01:38:15.741Z,99694.17
2022-12-01T01:43:19.111Z,99688.31
2022-12-01T01:48:22.871Z,99689.95
2022-12-01T01:53:26.305Z,99688.51
2022-12-01T01:58:29.679Z,99675.42
2022-12-01T02:03:33.085Z,99670.65
2022-12-01T02:08:36.925Z,99663.06
2022-12-01T02:13:40.428Z,99660.23
2022-12-01T02:18:43.801Z,99667.88
2022-12-01T02:23:47.195Z,99666.47
2022-12-01T02:28:50.594Z,99669.49
2022-12-01T02:33:53.988Z,99665.31
2022-12-01T02:38:57.405Z,99665.41
2022-12-01T02:44:00.776Z,99668.27
2022-12-01T02:49:04.200Z,99665.70
2022-12-01T02:54:07.590Z,99660.83
2022-12-01T02:59:11.226Z,99660.13
2022-12-01T03:04:14.781Z,99660.15
2022-12-01T03:09:18.175Z,99654.39
2022-12-01T03:14:21.604Z,99649.44
2022-12-01T03:19:25.004Z,99648.41
2022-12-01T03:24:29.441Z,99646.88
2022-12-01T03:29:32.844Z,99646.98
2022-12-01T03:34:36.261Z,99637.47
2022-12-01T03:39:39.633Z,99632.02
2022-12-01T03:44:43.045Z,99633.37
2022-12-01T03:49:46.616Z,99629.11
2022-12-01T03:54:50.465Z,99629.44
2022-12-01T03:59:53.856Z,99633.71
2022-12-01T04:04:57.215Z,99634.55
2022-12-01T04:10:00.635Z,99635.38
2022-12-01T04:15:04.172Z,99629.16
2022-12-01T04:20:07.692Z,99629.59
2022-12-01T04:25:11.120Z,99627.55
2022-12-01T04:30:14.499Z,99621.96
2022-12-01T04:35:17.936Z,99616.95
2022-12-01T04:40:21.669Z,99617.38
2022-12-01T04:45:25.211Z,99619.26
2022-12-01T04:50:28.580Z,99623.11
2022-12-01T04:55:31.975Z,99626.79
2022-12-01T05:00:35.419Z,99627.45
2022-12-01T05:05:38.840Z,99623.81
2022-12-01T05:10:42.251Z,99629.54
2022-12-01T05:15:45.631Z,99636.33
2022-12-01T05:20:58.229Z,99637.08
2022-12-01T05:26:01.611Z,99640.91
2022-12-01T05:31:05.031Z,99641.32
2022-12-01T05:36:08.651Z,99642.42
2022-12-01T05:41:12.056Z,99644.78
2022-12-01T05:46:15.579Z,99642.49
2022-12-01T05:51:18.985Z,99634.67
2022-12-01T05:56:22.520Z,99628.42
2022-12-01T06:01:27.931Z,99633.58
2022-12-01T06:06:31.406Z,99637.37
2022-12-01T06:11:34.803Z,99646.98
2022-12-01T06:16:38.233Z,99648.79
2022-12-01T06:21:41.751Z,99657.89
2022-12-01T06:26:45.316Z,99662.11
2022-12-01T06:31:48.707Z,99665.30
2022-12-01T06:36:52.214Z,99664.08
2022-12-01T06:41:55.630Z,99667.96
2022-12-01T06:46:58.999Z,99666.05
2022-12-01T06:52:03.420Z,99670.47
2022-12-01T06:57:06.873Z,99673.35
2022-12-01T07:02:10.623Z,99675.55
2022-12-01T07:07:14.267Z,99682.27
2022-12-01T07:12:17.659Z,99684.03
2022-12-01T07:17:21.086Z,99685.21
2022-12-01T07:22:29.505Z,99685.56
2022-12-01T07:27:35.815Z,99687.30
2022-12-01T07:32:39.256Z,99686.30
2022-12-01T07:37:42.678Z,99690.05
2022-12-01T07:42:46.238Z,99696.28
2022-12-01T07:47:49.673Z,99694.83
2022-12-01T07:52:53.159Z,99695.61
2022-12-01T07:57:56.683Z,99694.78
2022-12-01T08:03:00.156Z,99694.91
2022-12-01T08:08:03.801Z,99698.96
2022-12-01T08:13:07.267Z,99695.15
2022-12-01T08:18:11.732Z,99696.56
2022-12-01T08:23:15.123Z,99696.54
2022-12-01T08:28:18.618Z,99694.62
2022-12-01T08:33:22.068Z,99694.29
2022-12-01T08:38:25.466Z,99697.73
2022-12-01T08:43:56.049Z,99701.93
2022-12-01T08:48:54.821Z,99703.52
2022-12-01T08:53:58.279Z,99704.91
2022-12-01T08:59:01.797Z,99711.02
2022-12-01T09:04:09.138Z,99709.45
2022-12-01T09:09:12.815Z,99704.49
2022-12-01T09:14:16.262Z,99702.16
2022-12-01T09:19:24.143Z,99698.88
2022-12-01T09:24:28.430Z,99689.55
2022-12-01T09:29:31.808Z,99689.73
2022-12-01T09:34:35.288Z,99689.27
2022-12-01T09:39:38.727Z,99687.89
2022-12-01T09:44:42.129Z,99686.60
2022-12-01T09:49:45.762Z,99679.82
2022-12-01T09:54:49.489Z,99679.16
2022-12-01T09:59:52.907Z,99672.08
2022-12-01T10:04:56.473Z,99665.08
2022-12-01T10:09:59.990Z,99665.64
2022-12-01T10:15:03.431Z,99659.73
2022-12-01T10:20:06.867Z,99661.81
2022-12-01T10:25:10.280Z,99665.98
2022-12-01T10:30:13.771Z,99656.44
2022-12-01T10:35:17.270Z,99658.87
2022-12-01T10:40:21.210Z,99657.23
2022-12-01T10:45:24.588Z,99652.88
2022-12-01T10:50:28.184Z,99652.33
2022-12-01T10:55:31.843Z,99650.73
2022-12-01T11:00:58.625Z,99645.96
2022-12-01T11:05:59.150Z,99637.98
2022-12-01T11:11:02.565Z,99639.67
2022-12-01T11:16:05.983Z,99636.38
2022-12-01T11:21:09.468Z,99631.57
2022-12-01T11:26:13.273Z,99631.53
2022-12-01T11:31:19.536Z,99625.89
2022-12-01T11:36:23.077Z,99625.73
2022-12-01T11:41:26.497Z,99622.77
2022-12-01T11:46:29.877Z,99619.80
2022-12-01T11:51:37.233Z,99616.15
2022-12-01T11:56:40.748Z,99614.52
2022-12-01T12:01:44.264Z,99611.26
2022-12-01T12:06:47.691Z,99617.61
2022-12-01T12:11:51.108Z,99621.19
2022-12-01T12:16:54.578Z,99625.15
2022-12-01T12:22:00.060Z,99623.63
2022-12-01T12:27:03.500Z,99629.45
2022-12-01T12:32:07.008Z,99633.05
2022-12-01T12:37:10.614Z,99636.95
2022-12-01T12:42:14.039Z,99634.02
2022-12-01T12:47:17.558Z,99627.36
2022-12-01T12:52:20.983Z,99626.67
2022-12-01T12:57:24.461Z,99626.05
2022-12-01T13:02:28.273Z,99626.11
2022-12-01T13:07:31.744Z,99628.12
2022-12-01T13:12:35.622Z,99629.73
2022-12-01T13:17:39.013Z,99631.17
2022-12-01T13:22:42.635Z,99630.27
2022-12-01T13:27:46.287Z,99632.60
2022-12-01T13:32:49.744Z,99638.27
2022-12-01T13:37:53.171Z,99634.95
2022-12-01T13:42:56.620Z,99628.10
2022-12-01T13:48:00.020Z,99635.61
2022-12-01T13:53:03.431Z,99631.95
2022-12-01T13:58:06.895Z,99639.18
2022-12-01T14:03:10.476Z,99635.27
2022-12-01T14:08:19.577Z,99637.98
2022-12-01T14:13:26.205Z,99637.11
2022-12-01T14:18:29.636Z,99634.56
2022-12-01T14:23:33.864Z,99634.77
2022-12-01T14:28:38.360Z,99635.96
2022-12-01T14:33:41.756Z,99636.80
2022-12-01T14:38:45.135Z,99631.27
2022-12-01T14:44:07.337Z,99632.98
2022-12-01T14:49:10.765Z,99633.10
2022-12-01T14:54:14.236Z,99635.33
2022-12-01T14:59:17.751Z,99640.79
2022-12-01T15:04:21.272Z,99636.98
2022-12-01T15:09:33.425Z,99635.82
2022-12-01T15:14:37.458Z,99631.77
2022-12-01T15:19:41.001Z,99633.89
2022-12-01T15:24:44.419Z,99630.38
2022-12-01T15:29:48.170Z,99629.50
2022-12-01T15:34:52.272Z,99634.14
2022-12-01T15:40:10.069Z,99633.36
2022-12-01T15:45:21.757Z,99639.98
2022-12-01T15:50:25.147Z,99636.58
2022-12-01T15:55:28.540Z,99637.75
2022-12-01T16:00:31.912Z,99639.52
2022-12-01T16:05:35.287Z,99639.80
2022-12-01T16:11:06.455Z,99637.20
2022-12-01T16:16:09.998Z,99639.27
2022-12-01T16:21:13.696Z,99637.74
2022-12-01T16:26:17.119Z,99634.25
2022-12-01T16:31:20.588Z,99631.55
2022-12-01T16:36:27.057Z,99630.13
2022-12-01T16:41:36.398Z,99628.89
2022-12-01T16:46:41.616Z,99630.67
2022-12-01T16:52:11.109Z,99632.09
2022-12-01T16:57:08.364Z,99627.27
2022-12-01T17:02:11.947Z,99627.30
2022-12-01T17:07:15.513Z,99624.58
2022-12-01T17:12:18.880Z,99629.11
2022-12-01T17:17:22.263Z,99626.67
2022-12-01T17:22:25.640Z,99628.45
2022-12-01T17:27:29.660Z,99635.25
2022-12-01T17:32:33.227Z,99630.54
2022-12-01T17:37:36.993Z,99625.30
2022-12-01T17:42:42.287Z,99624.71
2022-12-01T17:47:47.772Z,99625.88
2022-12-01T17:52:52.243Z,99623.59
2022-12-01T17:57:56.327Z,99620.27
2022-12-01T18:03:00.006Z,99620.01
2022-12-01T18:08:03.589Z,99618.40
2022-12-01T18:13:07.124Z,99616.56
2022-12-01T18:18:10.538Z,99617.53
2022-12-01T18:23:13.961Z,99615.51
2022-12-01T18:28:17.395Z,99621.08
2022-12-01T18:33:20.949Z,99621.41
2022-12-01T18:38:25.012Z,99622.17
2022-12-01T18:43:29.435Z,99623.65
2022-12-01T18:48:32.807Z,99626.55
2022-12-01T18:53:36.203Z,99626.35
2022-12-01T18:58:39.556Z,99622.35
2022-12-01T19:03:42.973Z,99617.30
2022-12-01T19:08:46.459Z,99616.83
2022-12-01T19:13:49.858Z,99620.46
2022-12-01T19:18:53.243Z,99618.14
2022-12-01T19:23:56.619Z,99619.42
2022-12-01T19:29:00.381Z,99618.31
2022-12-01T19:34:04.647Z,99620.93
2022-12-01T19:39:08.209Z,99620.27
2022-12-01T19:44:11.913Z,99620.25
2022-12-01T19:49:15.325Z,99620.13
2022-12-01T19:54:18.745Z,99618.23
2022-12-01T19:59:22.221Z,99613.80
2022-12-01T20:04:25.686Z,99608.38
2022-12-01T20:09:29.111Z,99609.08
2022-12-01T20:14:32.479Z,99602.18
2022-12-01T20:19:35.880Z,99597.80
2022-12-01T20:24:41.216Z,99592.70
2022-12-01T20:29:45.018Z,99598.48
2022-12-01T20:34:48.725Z,99596.66
2022-12-01T20:39:52.546Z,99599.05
2022-12-01T20:44:56.008Z,99597.34
2022-12-01T20:49:59.396Z,99593.95
2022-12-01T20:55:02.810Z,99593.00
2022-12-01T21:00:06.208Z,99589.95
2022-12-01T21:05:09.631Z,99596.42
2022-12-01T21:10:18.502Z,99591.74
2022-12-01T21:15:23.441Z,99594.23
2022-12-01T21:20:27.171Z,99603.77
2022-12-01T21:25:31.007Z,99600.27
2022-12-01T21:30:34.404Z,99600.93
2022-12-01T21:35:37.951Z,99598.00
2022-12-01T21:40:42.446Z,99603.50
2022-12-01T21:45:45.885Z,99606.17
2022-12-01T21:50:53.865Z,99605.36
2022-12-01T21:55:57.760Z,99601.08
2022-12-01T22:01:01.237Z,99599.19
2022-12-01T22:06:28.861Z,99598.41
2022-12-01T22:11:28.253Z,99591.17
2022-12-01T22:16:31.627Z,99591.02
2022-12-01T22:21:35.042Z,99588.59
2022-12-01T22:26:38.411Z,99587.97
2022-12-01T22:31:41.788Z,99589.55
2022-12-01T22:36:45.171Z,99584.37
2022-12-01T22:41:48.560Z,99583.90
2022-12-01T22:46:52.017Z,99581.46
2022-12-01T22:51:55.488Z,99574.89
2022-12-01T22:56:58.876Z,99576.04
2022-12-01T23:02:03.345Z,99567.44
2022-12-01T23:07:07.074Z,99571.09
2022-12-01T23:12:10.500Z,99566.85
2022-12-01T23:17:13.858Z,99566.10
2022-12-01T23:22:17.356Z,99563.84
2022-12-01T23:27:20.747Z,99564.52
2022-12-01T23:32:24.223Z,99563.08
2022-12-01T23:37:27.631Z,99561.58
2022-12-01T23:42:31.050Z,99556.79
2022-12-01T23:47:34.439Z,99557.34
2022-12-01T23:52:37.984Z,99558.91
2022-12-01T23:57:41.375Z,99560.70
